sensor_id;sensor_type;location;lat;lon;timestamp;P1;durP1;ratioP1;P2;durP2;ratioP2
17913;SDS011;9082;50.742;8.238;2022-07-22T00:02:05;18.37;;;12.10;;
17913;SDS011;9082;50.742;8.238;2022-07-22T00:04:33;19.13;;;12.10;;
17913;SDS011;9082;50.742;8.238;2022-07-22T00:07:00;17.37;;;11.77;;
17913;SDS011;9082;50.742;8.238;2022-07-22T00:09:37;16.00;;;11.10;;
17913;SDS011;9082;50.742;8.238;2022-07-22T00:12:17;19.13;;;11.13;;
17913;SDS011;9082;50.742;8.238;2022-07-22T00:14:44;15.73;;;10.87;;
17913;SDS011;9082;50.742;8.238;2022-07-22T00:17:11;16.70;;;11.20;;
17913;SDS011;9082;50.742;8.238;2022-07-22T00:19:43;18.77;;;11.87;;
17913;SDS011;9082;50.742;8.238;2022-07-22T00:22:10;18.50;;;11.67;;
17913;SDS011;9082;50.742;8.238;2022-07-22T00:24:38;14.67;;;10.00;;
17913;SDS011;9082;50.742;8.238;2022-07-22T00:27:05;15.77;;;10.30;;
17913;SDS011;9082;50.742;8.238;2022-07-22T00:29:35;18.60;;;10.67;;
17913;SDS011;9082;50.742;8.238;2022-07-22T00:32:03;16.13;;;9.93;;
17913;SDS011;9082;50.742;8.238;2022-07-22T00:34:30;13.33;;;9.37;;
17913;SDS011;9082;50.742;8.238;2022-07-22T00:36:57;13.67;;;9.10;;
17913;SDS011;9082;50.742;8.238;2022-07-22T00:39:24;16.33;;;8.70;;
17913;SDS011;9082;50.742;8.238;2022-07-22T00:41:51;15.47;;;8.63;;
17913;SDS011;9082;50.742;8.238;2022-07-22T00:44:18;14.20;;;7.73;;
17913;SDS011;9082;50.742;8.238;2022-07-22T00:46:47;13.57;;;7.73;;
17913;SDS011;9082;50.742;8.238;2022-07-22T00:49:14;15.20;;;8.63;;
17913;SDS011;9082;50.742;8.238;2022-07-22T00:51:41;11.60;;;7.57;;
17913;SDS011;9082;50.742;8.238;2022-07-22T00:54:08;11.73;;;8.70;;
17913;SDS011;9082;50.742;8.238;2022-07-22T00:56:36;13.03;;;8.30;;
17913;SDS011;9082;50.742;8.238;2022-07-22T00:59:04;13.07;;;8.40;;
17913;SDS011;9082;50.742;8.238;2022-07-22T01:01:32;14.63;;;8.50;;
17913;SDS011;9082;50.742;8.238;2022-07-22T01:04:02;15.47;;;8.33;;
17913;SDS011;9082;50.742;8.238;2022-07-22T01:06:29;13.67;;;8.30;;
17913;SDS011;9082;50.742;8.238;2022-07-22T01:08:57;12.90;;;8.40;;
17913;SDS011;9082;50.742;8.238;2022-07-22T01:11:38;12.47;;;8.47;;
17913;SDS011;9082;50.742;8.238;2022-07-22T01:14:07;16.03;;;8.60;;
17913;SDS011;9082;50.742;8.238;2022-07-22T01:17:13;16.90;;;8.70;;
17913;SDS011;9082;50.742;8.238;2022-07-22T01:19:41;14.87;;;9.20;;
17913;SDS011;9082;50.742;8.238;2022-07-22T01:22:11;15.97;;;8.60;;
17913;SDS011;9082;50.742;8.238;2022-07-22T01:24:44;13.13;;;8.60;;
17913;SDS011;9082;50.742;8.238;2022-07-22T01:27:46;14.07;;;8.87;;
17913;SDS011;9082;50.742;8.238;2022-07-22T01:30:14;16.03;;;8.70;;
17913;SDS011;9082;50.742;8.238;2022-07-22T01:32:41;13.30;;;8.33;;
17913;SDS011;9082;50.742;8.238;2022-07-22T01:35:08;17.17;;;8.47;;
17913;SDS011;9082;50.742;8.238;2022-07-22T01:37:50;13.17;;;8.10;;
17913;SDS011;9082;50.742;8.238;2022-07-22T01:40:19;13.10;;;7.60;;
17913;SDS011;9082;50.742;8.238;2022-07-22T01:46:38;11.47;;;7.10;;
17913;SDS011;9082;50.742;8.238;2022-07-22T01:52:08;13.37;;;7.37;;
17913;SDS011;9082;50.742;8.238;2022-07-22T01:54:36;12.67;;;6.80;;
17913;SDS011;9082;50.742;8.238;2022-07-22T01:57:04;11.13;;;7.43;;
17913;SDS011;9082;50.742;8.238;2022-07-22T01:59:31;10.23;;;6.20;;
17913;SDS011;9082;50.742;8.238;2022-07-22T02:01:58;9.57;;;6.13;;
17913;SDS011;9082;50.742;8.238;2022-07-22T02:07:15;11.57;;;6.80;;
17913;SDS011;9082;50.742;8.238;2022-07-22T02:12:47;9.93;;;6.00;;
17913;SDS011;9082;50.742;8.238;2022-07-22T02:15:16;11.93;;;6.17;;
17913;SDS011;9082;50.742;8.238;2022-07-22T02:17:44;8.70;;;5.47;;
17913;SDS011;9082;50.742;8.238;2022-07-22T02:20:11;9.40;;;5.87;;
17913;SDS011;9082;50.742;8.238;2022-07-22T02:22:38;14.60;;;5.70;;
17913;SDS011;9082;50.742;8.238;2022-07-22T02:25:06;8.77;;;5.70;;
17913;SDS011;9082;50.742;8.238;2022-07-22T02:27:33;10.43;;;5.70;;
17913;SDS011;9082;50.742;8.238;2022-07-22T02:30:02;8.57;;;5.80;;
17913;SDS011;9082;50.742;8.238;2022-07-22T02:32:30;7.47;;;5.70;;
17913;SDS011;9082;50.742;8.238;2022-07-22T02:34:57;12.80;;;6.37;;
17913;SDS011;9082;50.742;8.238;2022-07-22T02:37:24;11.10;;;6.20;;
17913;SDS011;9082;50.742;8.238;2022-07-22T02:42:55;12.57;;;6.43;;
17913;SDS011;9082;50.742;8.238;2022-07-22T02:45:24;12.53;;;6.37;;
17913;SDS011;9082;50.742;8.238;2022-07-22T02:47:52;13.37;;;6.90;;
17913;SDS011;9082;50.742;8.238;2022-07-22T02:50:19;10.83;;;7.27;;
17913;SDS011;9082;50.742;8.238;2022-07-22T02:52:46;16.33;;;7.20;;
17913;SDS011;9082;50.742;8.238;2022-07-22T02:55:14;14.47;;;7.40;;
17913;SDS011;9082;50.742;8.238;2022-07-22T02:57:41;10.93;;;6.77;;
17913;SDS011;9082;50.742;8.238;2022-07-22T03:03:14;10.87;;;6.70;;
17913;SDS011;9082;50.742;8.238;2022-07-22T03:05:46;13.00;;;6.93;;
17913;SDS011;9082;50.742;8.238;2022-07-22T03:08:13;13.17;;;6.97;;
17913;SDS011;9082;50.742;8.238;2022-07-22T03:10:46;11.43;;;6.97;;
17913;SDS011;9082;50.742;8.238;2022-07-22T03:28:36;12.93;;;7.17;;
17913;SDS011;9082;50.742;8.238;2022-07-22T03:31:04;11.87;;;7.33;;
17913;SDS011;9082;50.742;8.238;2022-07-22T03:33:51;12.83;;;7.60;;
17913;SDS011;9082;50.742;8.238;2022-07-22T03:36:20;12.50;;;7.77;;
17913;SDS011;9082;50.742;8.238;2022-07-22T03:39:11;13.30;;;7.47;;
17913;SDS011;9082;50.742;8.238;2022-07-22T03:41:39;15.03;;;7.87;;
17913;SDS011;9082;50.742;8.238;2022-07-22T03:47:11;11.53;;;7.07;;
17913;SDS011;9082;50.742;8.238;2022-07-22T03:49:38;11.47;;;6.90;;
17913;SDS011;9082;50.742;8.238;2022-07-22T03:52:05;11.67;;;7.07;;
17913;SDS011;9082;50.742;8.238;2022-07-22T03:57:36;13.63;;;8.20;;
17913;SDS011;9082;50.742;8.238;2022-07-22T04:00:03;11.80;;;7.23;;
17913;SDS011;9082;50.742;8.238;2022-07-22T04:02:48;13.70;;;7.60;;
17913;SDS011;9082;50.742;8.238;2022-07-22T04:05:15;14.87;;;7.70;;
17913;SDS011;9082;50.742;8.238;2022-07-22T04:07:42;11.50;;;7.13;;
17913;SDS011;9082;50.742;8.238;2022-07-22T04:10:18;13.13;;;7.20;;
17913;SDS011;9082;50.742;8.238;2022-07-22T04:12:46;12.20;;;7.40;;
17913;SDS011;9082;50.742;8.238;2022-07-22T04:15:13;11.27;;;6.90;;
17913;SDS011;9082;50.742;8.238;2022-07-22T04:17:40;16.50;;;7.70;;
17913;SDS011;9082;50.742;8.238;2022-07-22T04:20:09;14.27;;;7.43;;
17913;SDS011;9082;50.742;8.238;2022-07-22T04:28:15;11.10;;;7.20;;
17913;SDS011;9082;50.742;8.238;2022-07-22T04:30:42;14.80;;;7.33;;
17913;SDS011;9082;50.742;8.238;2022-07-22T04:33:10;12.17;;;7.37;;
17913;SDS011;9082;50.742;8.238;2022-07-22T04:35:41;11.40;;;6.70;;
17913;SDS011;9082;50.742;8.238;2022-07-22T04:41:10;10.93;;;6.00;;
17913;SDS011;9082;50.742;8.238;2022-07-22T04:43:37;13.27;;;6.03;;
17913;SDS011;9082;50.742;8.238;2022-07-22T04:46:04;9.27;;;5.57;;
17913;SDS011;9082;50.742;8.238;2022-07-22T04:51:32;10.30;;;6.10;;
17913;SDS011;9082;50.742;8.238;2022-07-22T04:53:59;10.20;;;5.77;;
17913;SDS011;9082;50.742;8.238;2022-07-22T04:56:27;9.13;;;5.23;;
17913;SDS011;9082;50.742;8.238;2022-07-22T04:58:54;9.20;;;5.50;;
17913;SDS011;9082;50.742;8.238;2022-07-22T05:01:21;9.73;;;5.80;;
17913;SDS011;9082;50.742;8.238;2022-07-22T05:03:48;8.47;;;5.73;;
17913;SDS011;9082;50.742;8.238;2022-07-22T05:06:17;13.60;;;6.03;;
17913;SDS011;9082;50.742;8.238;2022-07-22T05:08:45;9.77;;;5.57;;
17913;SDS011;9082;50.742;8.238;2022-07-22T05:11:13;8.70;;;5.07;;
17913;SDS011;9082;50.742;8.238;2022-07-22T05:13:40;10.17;;;5.07;;
17913;SDS011;9082;50.742;8.238;2022-07-22T05:16:14;10.90;;;5.20;;
17913;SDS011;9082;50.742;8.238;2022-07-22T05:18:41;9.30;;;5.00;;
17913;SDS011;9082;50.742;8.238;2022-07-22T05:21:10;6.93;;;5.00;;
17913;SDS011;9082;50.742;8.238;2022-07-22T05:23:49;6.57;;;4.20;;
17913;SDS011;9082;50.742;8.238;2022-07-22T05:26:18;7.07;;;4.60;;
17913;SDS011;9082;50.742;8.238;2022-07-22T05:28:45;6.43;;;4.70;;
17913;SDS011;9082;50.742;8.238;2022-07-22T05:31:13;8.67;;;5.07;;
17913;SDS011;9082;50.742;8.238;2022-07-22T05:33:44;8.20;;;5.00;;
17913;SDS011;9082;50.742;8.238;2022-07-22T05:36:11;9.33;;;5.90;;
17913;SDS011;9082;50.742;8.238;2022-07-22T05:38:38;7.90;;;4.83;;
17913;SDS011;9082;50.742;8.238;2022-07-22T05:41:08;8.93;;;5.20;;
17913;SDS011;9082;50.742;8.238;2022-07-22T05:43:44;7.33;;;5.00;;
17913;SDS011;9082;50.742;8.238;2022-07-22T05:46:11;8.13;;;5.03;;
17913;SDS011;9082;50.742;8.238;2022-07-22T05:48:39;7.70;;;4.93;;
17913;SDS011;9082;50.742;8.238;2022-07-22T05:51:12;8.23;;;4.70;;
17913;SDS011;9082;50.742;8.238;2022-07-22T05:53:39;8.07;;;5.03;;
17913;SDS011;9082;50.742;8.238;2022-07-22T05:56:08;6.53;;;4.27;;
17913;SDS011;9082;50.742;8.238;2022-07-22T05:58:40;7.73;;;5.00;;
17913;SDS011;9082;50.742;8.238;2022-07-22T06:01:11;9.77;;;5.27;;
17913;SDS011;9082;50.742;8.238;2022-07-22T06:03:38;9.97;;;5.60;;
17913;SDS011;9082;50.742;8.238;2022-07-22T06:06:06;10.57;;;5.27;;
17913;SDS011;9082;50.742;8.238;2022-07-22T06:08:35;11.07;;;5.70;;
17913;SDS011;9082;50.742;8.238;2022-07-22T06:11:11;8.10;;;5.33;;
17913;SDS011;9082;50.742;8.238;2022-07-22T06:13:38;9.97;;;5.13;;
17913;SDS011;9082;50.742;8.238;2022-07-22T06:16:06;11.00;;;5.10;;
17913;SDS011;9082;50.742;8.238;2022-07-22T06:18:34;10.17;;;5.27;;
17913;SDS011;9082;50.742;8.238;2022-07-22T06:21:01;9.13;;;4.50;;
17913;SDS011;9082;50.742;8.238;2022-07-22T06:23:32;12.43;;;4.90;;
17913;SDS011;9082;50.742;8.238;2022-07-22T06:26:00;7.80;;;4.50;;
17913;SDS011;9082;50.742;8.238;2022-07-22T06:28:28;7.50;;;4.60;;
17913;SDS011;9082;50.742;8.238;2022-07-22T06:30:57;8.23;;;4.70;;
17913;SDS011;9082;50.742;8.238;2022-07-22T06:33:24;7.37;;;4.60;;
17913;SDS011;9082;50.742;8.238;2022-07-22T06:35:52;7.23;;;4.73;;
17913;SDS011;9082;50.742;8.238;2022-07-22T06:38:19;8.40;;;4.93;;
17913;SDS011;9082;50.742;8.238;2022-07-22T06:40:47;7.30;;;4.97;;
17913;SDS011;9082;50.742;8.238;2022-07-22T06:43:15;7.83;;;4.80;;
17913;SDS011;9082;50.742;8.238;2022-07-22T06:45:43;8.07;;;4.60;;
17913;SDS011;9082;50.742;8.238;2022-07-22T06:48:11;6.73;;;4.53;;
17913;SDS011;9082;50.742;8.238;2022-07-22T06:50:41;7.50;;;4.17;;
17913;SDS011;9082;50.742;8.238;2022-07-22T06:53:11;7.67;;;4.20;;
17913;SDS011;9082;50.742;8.238;2022-07-22T06:55:38;6.13;;;3.77;;
17913;SDS011;9082;50.742;8.238;2022-07-22T06:58:05;4.90;;;3.20;;
17913;SDS011;9082;50.742;8.238;2022-07-22T07:00:32;5.83;;;3.90;;
17913;SDS011;9082;50.742;8.238;2022-07-22T07:03:01;6.67;;;3.63;;
17913;SDS011;9082;50.742;8.238;2022-07-22T07:05:28;5.37;;;3.20;;
17913;SDS011;9082;50.742;8.238;2022-07-22T07:07:55;4.67;;;3.30;;
17913;SDS011;9082;50.742;8.238;2022-07-22T07:10:23;4.70;;;3.23;;
17913;SDS011;9082;50.742;8.238;2022-07-22T07:12:50;6.13;;;3.00;;
17913;SDS011;9082;50.742;8.238;2022-07-22T07:15:22;5.20;;;3.10;;
17913;SDS011;9082;50.742;8.238;2022-07-22T07:17:50;6.70;;;3.10;;
17913;SDS011;9082;50.742;8.238;2022-07-22T07:20:19;8.87;;;2.83;;
17913;SDS011;9082;50.742;8.238;2022-07-22T07:22:46;6.57;;;2.87;;
17913;SDS011;9082;50.742;8.238;2022-07-22T07:25:15;6.33;;;2.50;;
17913;SDS011;9082;50.742;8.238;2022-07-22T07:27:43;4.60;;;2.63;;
17913;SDS011;9082;50.742;8.238;2022-07-22T07:30:10;5.63;;;2.77;;
17913;SDS011;9082;50.742;8.238;2022-07-22T07:32:38;4.60;;;2.83;;
17913;SDS011;9082;50.742;8.238;2022-07-22T07:35:06;7.60;;;3.17;;
17913;SDS011;9082;50.742;8.238;2022-07-22T07:37:35;4.70;;;2.47;;
17913;SDS011;9082;50.742;8.238;2022-07-22T07:40:04;4.80;;;2.10;;
17913;SDS011;9082;50.742;8.238;2022-07-22T07:42:33;4.73;;;2.33;;
17913;SDS011;9082;50.742;8.238;2022-07-22T07:45:01;3.17;;;2.20;;
17913;SDS011;9082;50.742;8.238;2022-07-22T07:47:38;7.03;;;2.37;;
17913;SDS011;9082;50.742;8.238;2022-07-22T07:50:06;5.33;;;2.70;;
17913;SDS011;9082;50.742;8.238;2022-07-22T07:52:37;2.93;;;2.20;;
17913;SDS011;9082;50.742;8.238;2022-07-22T07:55:05;3.30;;;2.47;;
17913;SDS011;9082;50.742;8.238;2022-07-22T07:57:32;4.23;;;2.37;;
17913;SDS011;9082;50.742;8.238;2022-07-22T07:59:59;3.33;;;2.47;;
17913;SDS011;9082;50.742;8.238;2022-07-22T08:02:27;3.60;;;2.67;;
17913;SDS011;9082;50.742;8.238;2022-07-22T08:04:54;2.67;;;2.00;;
17913;SDS011;9082;50.742;8.238;2022-07-22T08:07:21;2.77;;;2.20;;
17913;SDS011;9082;50.742;8.238;2022-07-22T08:09:50;4.83;;;2.40;;
17913;SDS011;9082;50.742;8.238;2022-07-22T08:12:17;3.70;;;1.97;;
17913;SDS011;9082;50.742;8.238;2022-07-22T08:14:54;2.93;;;2.10;;
17913;SDS011;9082;50.742;8.238;2022-07-22T08:17:24;3.50;;;1.97;;
17913;SDS011;9082;50.742;8.238;2022-07-22T08:19:55;2.93;;;2.00;;
17913;SDS011;9082;50.742;8.238;2022-07-22T08:22:22;3.57;;;2.10;;
17913;SDS011;9082;50.742;8.238;2022-07-22T08:24:51;2.73;;;1.87;;
17913;SDS011;9082;50.742;8.238;2022-07-22T08:27:19;2.57;;;1.87;;
17913;SDS011;9082;50.742;8.238;2022-07-22T08:29:46;3.67;;;2.37;;
17913;SDS011;9082;50.742;8.238;2022-07-22T08:32:13;3.27;;;2.20;;
17913;SDS011;9082;50.742;8.238;2022-07-22T08:34:44;4.70;;;2.20;;
17913;SDS011;9082;50.742;8.238;2022-07-22T08:37:12;3.53;;;2.50;;
17913;SDS011;9082;50.742;8.238;2022-07-22T08:39:39;3.30;;;2.20;;
17913;SDS011;9082;50.742;8.238;2022-07-22T08:42:08;4.00;;;2.60;;
17913;SDS011;9082;50.742;8.238;2022-07-22T08:44:35;4.07;;;2.60;;
17913;SDS011;9082;50.742;8.238;2022-07-22T08:47:03;4.57;;;2.30;;
17913;SDS011;9082;50.742;8.238;2022-07-22T08:49:30;3.97;;;2.40;;
17913;SDS011;9082;50.742;8.238;2022-07-22T08:51:57;2.63;;;2.00;;
17913;SDS011;9082;50.742;8.238;2022-07-22T08:54:24;2.70;;;2.10;;
17913;SDS011;9082;50.742;8.238;2022-07-22T08:56:54;3.80;;;2.57;;
17913;SDS011;9082;50.742;8.238;2022-07-22T08:59:28;3.17;;;2.57;;
17913;SDS011;9082;50.742;8.238;2022-07-22T09:02:01;3.00;;;2.23;;
17913;SDS011;9082;50.742;8.238;2022-07-22T09:04:29;3.67;;;2.60;;
17913;SDS011;9082;50.742;8.238;2022-07-22T09:06:57;3.30;;;2.47;;
17913;SDS011;9082;50.742;8.238;2022-07-22T09:09:31;4.87;;;2.60;;
17913;SDS011;9082;50.742;8.238;2022-07-22T09:12:06;2.97;;;2.00;;
17913;SDS011;9082;50.742;8.238;2022-07-22T09:14:45;3.70;;;2.63;;
17913;SDS011;9082;50.742;8.238;2022-07-22T09:17:22;3.67;;;2.30;;
17913;SDS011;9082;50.742;8.238;2022-07-22T09:19:50;3.27;;;2.70;;
17913;SDS011;9082;50.742;8.238;2022-07-22T09:22:36;3.33;;;2.60;;
17913;SDS011;9082;50.742;8.238;2022-07-22T09:25:19;3.70;;;2.73;;
17913;SDS011;9082;50.742;8.238;2022-07-22T09:27:47;3.40;;;2.57;;
17913;SDS011;9082;50.742;8.238;2022-07-22T09:30:33;3.40;;;2.60;;
17913;SDS011;9082;50.742;8.238;2022-07-22T09:33:00;3.87;;;2.37;;
17913;SDS011;9082;50.742;8.238;2022-07-22T09:35:28;4.27;;;2.73;;
17913;SDS011;9082;50.742;8.238;2022-07-22T09:37:57;3.40;;;2.57;;
17913;SDS011;9082;50.742;8.238;2022-07-22T09:40:25;5.77;;;2.70;;
17913;SDS011;9082;50.742;8.238;2022-07-22T09:42:54;6.03;;;3.20;;
17913;SDS011;9082;50.742;8.238;2022-07-22T09:45:22;3.13;;;2.40;;
17913;SDS011;9082;50.742;8.238;2022-07-22T09:47:53;3.33;;;2.70;;
17913;SDS011;9082;50.742;8.238;2022-07-22T09:50:21;4.20;;;2.83;;
17913;SDS011;9082;50.742;8.238;2022-07-22T09:52:49;4.83;;;2.80;;
17913;SDS011;9082;50.742;8.238;2022-07-22T09:55:17;6.93;;;3.10;;
17913;SDS011;9082;50.742;8.238;2022-07-22T09:57:47;4.57;;;2.93;;
17913;SDS011;9082;50.742;8.238;2022-07-22T10:00:16;7.27;;;3.20;;
17913;SDS011;9082;50.742;8.238;2022-07-22T10:02:47;4.97;;;3.03;;
17913;SDS011;9082;50.742;8.238;2022-07-22T10:05:16;4.13;;;3.10;;
17913;SDS011;9082;50.742;8.238;2022-07-22T10:10:27;4.40;;;3.00;;
17913;SDS011;9082;50.742;8.238;2022-07-22T10:12:54;6.90;;;3.00;;
17913;SDS011;9082;50.742;8.238;2022-07-22T10:15:22;4.97;;;2.77;;
17913;SDS011;9082;50.742;8.238;2022-07-22T10:17:51;4.30;;;2.80;;
17913;SDS011;9082;50.742;8.238;2022-07-22T10:20:22;3.80;;;2.83;;
17913;SDS011;9082;50.742;8.238;2022-07-22T10:22:51;4.20;;;2.90;;
17913;SDS011;9082;50.742;8.238;2022-07-22T10:25:21;5.53;;;2.90;;
17913;SDS011;9082;50.742;8.238;2022-07-22T10:27:50;5.27;;;3.10;;
17913;SDS011;9082;50.742;8.238;2022-07-22T10:30:20;4.90;;;3.20;;
17913;SDS011;9082;50.742;8.238;2022-07-22T10:33:07;5.13;;;3.10;;
17913;SDS011;9082;50.742;8.238;2022-07-22T10:35:38;5.07;;;3.13;;
17913;SDS011;9082;50.742;8.238;2022-07-22T10:38:20;7.23;;;3.40;;
17913;SDS011;9082;50.742;8.238;2022-07-22T10:40:48;4.47;;;2.83;;
17913;SDS011;9082;50.742;8.238;2022-07-22T10:43:19;4.93;;;3.43;;
17913;SDS011;9082;50.742;8.238;2022-07-22T10:45:48;4.40;;;3.27;;
17913;SDS011;9082;50.742;8.238;2022-07-22T10:48:16;4.30;;;3.40;;
17913;SDS011;9082;50.742;8.238;2022-07-22T10:50:46;4.33;;;3.23;;
17913;SDS011;9082;50.742;8.238;2022-07-22T10:53:22;4.47;;;3.50;;
17913;SDS011;9082;50.742;8.238;2022-07-22T10:56:14;7.23;;;3.70;;
17913;SDS011;9082;50.742;8.238;2022-07-22T11:01:31;8.13;;;3.40;;
17913;SDS011;9082;50.742;8.238;2022-07-22T11:06:46;4.93;;;3.33;;
17913;SDS011;9082;50.742;8.238;2022-07-22T11:09:13;8.07;;;3.63;;
17913;SDS011;9082;50.742;8.238;2022-07-22T11:11:41;6.47;;;3.70;;
17913;SDS011;9082;50.742;8.238;2022-07-22T11:14:13;5.17;;;3.80;;
17913;SDS011;9082;50.742;8.238;2022-07-22T11:16:40;4.73;;;3.60;;
17913;SDS011;9082;50.742;8.238;2022-07-22T11:19:08;6.77;;;3.80;;
17913;SDS011;9082;50.742;8.238;2022-07-22T11:21:35;6.20;;;4.07;;
17913;SDS011;9082;50.742;8.238;2022-07-22T11:24:04;7.53;;;3.27;;
17913;SDS011;9082;50.742;8.238;2022-07-22T11:26:35;5.43;;;3.67;;
17913;SDS011;9082;50.742;8.238;2022-07-22T11:29:02;5.60;;;3.77;;
17913;SDS011;9082;50.742;8.238;2022-07-22T11:31:30;5.27;;;3.33;;
17913;SDS011;9082;50.742;8.238;2022-07-22T11:34:07;6.07;;;3.73;;
17913;SDS011;9082;50.742;8.238;2022-07-22T11:36:35;5.17;;;3.63;;
17913;SDS011;9082;50.742;8.238;2022-07-22T11:39:05;4.90;;;3.83;;
17913;SDS011;9082;50.742;8.238;2022-07-22T11:41:33;4.73;;;4.00;;
17913;SDS011;9082;50.742;8.238;2022-07-22T11:44:00;5.30;;;3.50;;
17913;SDS011;9082;50.742;8.238;2022-07-22T11:46:34;4.63;;;3.60;;
17913;SDS011;9082;50.742;8.238;2022-07-22T11:49:01;5.50;;;3.60;;
17913;SDS011;9082;50.742;8.238;2022-07-22T11:51:29;6.03;;;3.80;;
17913;SDS011;9082;50.742;8.238;2022-07-22T11:53:57;7.17;;;3.83;;
17913;SDS011;9082;50.742;8.238;2022-07-22T11:56:25;5.70;;;3.60;;
17913;SDS011;9082;50.742;8.238;2022-07-22T11:58:53;5.67;;;3.70;;
17913;SDS011;9082;50.742;8.238;2022-07-22T12:01:21;5.90;;;3.33;;
17913;SDS011;9082;50.742;8.238;2022-07-22T12:03:48;6.30;;;3.73;;
17913;SDS011;9082;50.742;8.238;2022-07-22T12:06:16;5.37;;;3.83;;
17913;SDS011;9082;50.742;8.238;2022-07-22T12:08:44;6.27;;;3.40;;
17913;SDS011;9082;50.742;8.238;2022-07-22T12:11:12;4.77;;;3.67;;
17913;SDS011;9082;50.742;8.238;2022-07-22T12:13:42;7.23;;;3.63;;
17913;SDS011;9082;50.742;8.238;2022-07-22T12:16:17;6.70;;;3.40;;
17913;SDS011;9082;50.742;8.238;2022-07-22T12:18:44;6.00;;;3.47;;
17913;SDS011;9082;50.742;8.238;2022-07-22T12:21:17;5.63;;;3.77;;
17913;SDS011;9082;50.742;8.238;2022-07-22T12:23:48;5.43;;;3.40;;
17913;SDS011;9082;50.742;8.238;2022-07-22T12:26:16;5.50;;;3.63;;
17913;SDS011;9082;50.742;8.238;2022-07-22T12:28:45;5.13;;;3.80;;
17913;SDS011;9082;50.742;8.238;2022-07-22T12:31:12;5.03;;;3.63;;
17913;SDS011;9082;50.742;8.238;2022-07-22T12:33:48;6.40;;;3.60;;
17913;SDS011;9082;50.742;8.238;2022-07-22T12:36:16;4.67;;;3.37;;
17913;SDS011;9082;50.742;8.238;2022-07-22T12:38:44;5.63;;;3.63;;
17913;SDS011;9082;50.742;8.238;2022-07-22T12:41:21;6.50;;;3.70;;
17913;SDS011;9082;50.742;8.238;2022-07-22T12:43:50;7.30;;;3.93;;
17913;SDS011;9082;50.742;8.238;2022-07-22T12:46:17;8.63;;;3.60;;
17913;SDS011;9082;50.742;8.238;2022-07-22T12:48:49;7.83;;;4.00;;
17913;SDS011;9082;50.742;8.238;2022-07-22T12:51:17;5.83;;;3.73;;
17913;SDS011;9082;50.742;8.238;2022-07-22T12:53:44;7.53;;;4.13;;
17913;SDS011;9082;50.742;8.238;2022-07-22T12:56:11;5.70;;;3.93;;
17913;SDS011;9082;50.742;8.238;2022-07-22T12:58:41;6.33;;;3.87;;
17913;SDS011;9082;50.742;8.238;2022-07-22T13:01:10;6.93;;;3.87;;
17913;SDS011;9082;50.742;8.238;2022-07-22T13:03:37;6.00;;;3.43;;
17913;SDS011;9082;50.742;8.238;2022-07-22T13:06:04;5.77;;;3.80;;
17913;SDS011;9082;50.742;8.238;2022-07-22T13:08:32;7.00;;;3.80;;
17913;SDS011;9082;50.742;8.238;2022-07-22T13:10:59;5.63;;;4.10;;
17913;SDS011;9082;50.742;8.238;2022-07-22T13:13:27;5.17;;;3.70;;
17913;SDS011;9082;50.742;8.238;2022-07-22T13:15:54;4.90;;;3.63;;
17913;SDS011;9082;50.742;8.238;2022-07-22T13:18:23;6.87;;;3.97;;
17913;SDS011;9082;50.742;8.238;2022-07-22T13:20:50;5.03;;;3.70;;
17913;SDS011;9082;50.742;8.238;2022-07-22T13:23:17;8.33;;;4.03;;
17913;SDS011;9082;50.742;8.238;2022-07-22T13:25:45;7.17;;;4.00;;
17913;SDS011;9082;50.742;8.238;2022-07-22T13:28:12;5.87;;;3.70;;
17913;SDS011;9082;50.742;8.238;2022-07-22T13:30:39;5.57;;;3.87;;
17913;SDS011;9082;50.742;8.238;2022-07-22T13:33:06;6.97;;;3.73;;
17913;SDS011;9082;50.742;8.238;2022-07-22T13:35:38;6.60;;;3.87;;
17913;SDS011;9082;50.742;8.238;2022-07-22T13:38:05;4.97;;;3.70;;
17913;SDS011;9082;50.742;8.238;2022-07-22T13:40:32;5.47;;;3.77;;
17913;SDS011;9082;50.742;8.238;2022-07-22T13:42:59;4.93;;;3.77;;
17913;SDS011;9082;50.742;8.238;2022-07-22T13:45:26;5.47;;;4.00;;
17913;SDS011;9082;50.742;8.238;2022-07-22T13:47:54;7.77;;;4.10;;
17913;SDS011;9082;50.742;8.238;2022-07-22T13:50:21;6.37;;;4.20;;
17913;SDS011;9082;50.742;8.238;2022-07-22T13:52:50;5.07;;;4.00;;
17913;SDS011;9082;50.742;8.238;2022-07-22T13:55:17;7.83;;;4.23;;
17913;SDS011;9082;50.742;8.238;2022-07-22T13:57:44;5.93;;;3.93;;
17913;SDS011;9082;50.742;8.238;2022-07-22T14:00:12;5.97;;;3.73;;
17913;SDS011;9082;50.742;8.238;2022-07-22T14:02:39;9.50;;;4.40;;
17913;SDS011;9082;50.742;8.238;2022-07-22T14:05:09;5.13;;;3.83;;
17913;SDS011;9082;50.742;8.238;2022-07-22T14:07:36;5.93;;;4.20;;
17913;SDS011;9082;50.742;8.238;2022-07-22T14:10:06;6.10;;;3.90;;
17913;SDS011;9082;50.742;8.238;2022-07-22T14:12:33;6.90;;;3.93;;
17913;SDS011;9082;50.742;8.238;2022-07-22T14:15:00;6.50;;;4.10;;
17913;SDS011;9082;50.742;8.238;2022-07-22T14:17:27;7.73;;;4.27;;
17913;SDS011;9082;50.742;8.238;2022-07-22T14:19:54;5.37;;;3.87;;
17913;SDS011;9082;50.742;8.238;2022-07-22T14:22:22;6.70;;;4.17;;
17913;SDS011;9082;50.742;8.238;2022-07-22T14:24:49;4.93;;;3.60;;
17913;SDS011;9082;50.742;8.238;2022-07-22T14:27:18;6.37;;;4.00;;
17913;SDS011;9082;50.742;8.238;2022-07-22T14:29:45;7.37;;;4.00;;
17913;SDS011;9082;50.742;8.238;2022-07-22T14:32:12;6.03;;;4.07;;
17913;SDS011;9082;50.742;8.238;2022-07-22T14:34:39;6.80;;;4.00;;
17913;SDS011;9082;50.742;8.238;2022-07-22T14:37:07;6.77;;;4.30;;
17913;SDS011;9082;50.742;8.238;2022-07-22T14:39:34;5.03;;;3.70;;
17913;SDS011;9082;50.742;8.238;2022-07-22T14:42:02;9.33;;;4.80;;
17913;SDS011;9082;50.742;8.238;2022-07-22T14:44:30;7.17;;;4.20;;
17913;SDS011;9082;50.742;8.238;2022-07-22T14:46:57;6.20;;;4.20;;
17913;SDS011;9082;50.742;8.238;2022-07-22T14:49:25;5.83;;;3.90;;
17913;SDS011;9082;50.742;8.238;2022-07-22T14:51:52;6.83;;;4.20;;
17913;SDS011;9082;50.742;8.238;2022-07-22T14:54:19;9.97;;;3.93;;
17913;SDS011;9082;50.742;8.238;2022-07-22T14:56:46;7.27;;;4.37;;
17913;SDS011;9082;50.742;8.238;2022-07-22T14:59:13;7.30;;;4.57;;
17913;SDS011;9082;50.742;8.238;2022-07-22T15:01:42;5.33;;;4.00;;
17913;SDS011;9082;50.742;8.238;2022-07-22T15:04:09;5.70;;;4.00;;
17913;SDS011;9082;50.742;8.238;2022-07-22T15:06:36;7.70;;;4.40;;
17913;SDS011;9082;50.742;8.238;2022-07-22T15:09:04;5.97;;;4.50;;
17913;SDS011;9082;50.742;8.238;2022-07-22T15:11:31;7.93;;;4.40;;
17913;SDS011;9082;50.742;8.238;2022-07-22T15:13:58;5.10;;;4.23;;
17913;SDS011;9082;50.742;8.238;2022-07-22T15:16:25;6.73;;;4.27;;
17913;SDS011;9082;50.742;8.238;2022-07-22T15:18:54;7.73;;;4.37;;
17913;SDS011;9082;50.742;8.238;2022-07-22T15:21:21;5.20;;;4.10;;
17913;SDS011;9082;50.742;8.238;2022-07-22T15:23:48;9.33;;;4.27;;
17913;SDS011;9082;50.742;8.238;2022-07-22T15:26:15;7.53;;;4.90;;
17913;SDS011;9082;50.742;8.238;2022-07-22T15:28:42;7.50;;;4.30;;
17913;SDS011;9082;50.742;8.238;2022-07-22T15:31:12;6.93;;;4.30;;
17913;SDS011;9082;50.742;8.238;2022-07-22T15:33:39;7.07;;;4.50;;
17913;SDS011;9082;50.742;8.238;2022-07-22T15:36:09;6.80;;;4.47;;
17913;SDS011;9082;50.742;8.238;2022-07-22T15:38:37;7.10;;;4.50;;
17913;SDS011;9082;50.742;8.238;2022-07-22T15:41:04;9.33;;;4.73;;
17913;SDS011;9082;50.742;8.238;2022-07-22T15:43:32;6.20;;;4.60;;
17913;SDS011;9082;50.742;8.238;2022-07-22T15:45:59;9.53;;;4.60;;
17913;SDS011;9082;50.742;8.238;2022-07-22T15:48:27;6.40;;;4.40;;
17913;SDS011;9082;50.742;8.238;2022-07-22T15:50:54;5.80;;;4.50;;
17913;SDS011;9082;50.742;8.238;2022-07-22T15:53:26;9.70;;;4.33;;
17913;SDS011;9082;50.742;8.238;2022-07-22T15:55:53;6.10;;;4.37;;
17913;SDS011;9082;50.742;8.238;2022-07-22T15:58:21;7.97;;;4.53;;
17913;SDS011;9082;50.742;8.238;2022-07-22T16:01:06;5.60;;;4.10;;
17913;SDS011;9082;50.742;8.238;2022-07-22T16:03:33;5.40;;;4.23;;
17913;SDS011;9082;50.742;8.238;2022-07-22T16:06:00;6.53;;;4.60;;
17913;SDS011;9082;50.742;8.238;2022-07-22T16:08:28;6.37;;;4.57;;
17913;SDS011;9082;50.742;8.238;2022-07-22T16:10:55;8.50;;;4.80;;